Kemmerer, WY (83101)

12:23 AM MST on January 28, 2015 (GMT -0700)
Kemmerer Municipal | Change Station
CLOSE
Current Station
Airport
Location: Kemmerer,
Elevation: 7283 ft
Nearby Weather Stations

Elev 7283 ft 41.82 °N, 110.56 °W | Updated 8 minutes ago

Mostly Cloudy
Mostly Cloudy
32 °F
Feels Like 26 °F
N
7
Wind Variable Wind from WSW

Today
High -- | Low -- °F
--% Chance of Precip.
Yesterday
High -- | Low -- °F
Precip. -- in
7:38 AM 5:31 PM
Waxing Gibbous, 62% visible
Pressure 30.18 in
Visibility 0.5 miles
Clouds Overcast 300 ft
Windchill 26 °F
Dew Point 32 °F
Humidity 100%
Rainfall 0.00 in
Snow Depth Not available.
UV 0 out of 12
Pollen .10 out of 12
Air Quality Not available.
Flu Activity Not available.
METAR KEMM 280715Z AUTO 24006KT 1/2SM SN OVC003 00/00 A3018 RMK AO2

More Conditions Fewer Conditions

Pressure 30.18 in
Visibility 0.5 miles
Clouds Overcast 300 ft
Windchill 26 °F
Dew Point 32 °F
Humidity 100%
Rainfall 0.00 in
Snow Depth Not available.
UV 0 out of 12
Pollen .10 out of 12
Air Quality Not available.
Flu Activity Not available.
METAR KEMM 280715Z AUTO 24006KT 1/2SM SN OVC003 00/00 A3018 RMK AO2

More Conditions Fewer Conditions

10-Day Weather Forecast

Almanac

Astronomy

Jan. 28, 2015 Rise Set
Actual Time
Civil Twilight
Nautical Twilight
Astronomical Twilight
Moon
Length of Visible Light
Length of Day
Tomorrow will be .
, % of the Moon is Illuminated

Today's Extremes

State Highs State Lows

Community

WunderPhotos

Upload Photos

1,791,117 photos uploaded!

WunderBlogs® & News

Nearby

Air Quality

  Air Quality AQ Index Pollutant
Not available.

Snow Depth

Station Depth Elevation

Earthquake Activity

City Distance Mag. Time & Date
Minimum magnitude displayed is 2.5.

Coastal Water Temperatures

Place Temperature

Nearby Weather Stations